sensor_id;sensor_type;location;lat;lon;timestamp;P1;durP1;ratioP1;P2;durP2;ratioP2
15553;SDS011;7878;44.632;10.942;2023-04-24T00:01:15;6.10;;;2.15;;
15553;SDS011;7878;44.632;10.942;2023-04-24T00:03:42;6.97;;;2.60;;
15553;SDS011;7878;44.632;10.942;2023-04-24T00:06:07;5.18;;;2.20;;
15553;SDS011;7878;44.632;10.942;2023-04-24T00:08:34;3.38;;;2.45;;
15553;SDS011;7878;44.632;10.942;2023-04-24T00:11:00;4.88;;;2.38;;
15553;SDS011;7878;44.632;10.942;2023-04-24T00:13:26;4.82;;;2.45;;
15553;SDS011;7878;44.632;10.942;2023-04-24T00:15:53;5.43;;;2.40;;
15553;SDS011;7878;44.632;10.942;2023-04-24T00:18:19;3.58;;;2.20;;
15553;SDS011;7878;44.632;10.942;2023-04-24T00:20:45;5.55;;;2.40;;
15553;SDS011;7878;44.632;10.942;2023-04-24T00:23:11;5.03;;;2.65;;
15553;SDS011;7878;44.632;10.942;2023-04-24T00:25:37;4.20;;;2.10;;
15553;SDS011;7878;44.632;10.942;2023-04-24T00:28:03;6.70;;;2.50;;
15553;SDS011;7878;44.632;10.942;2023-04-24T00:30:29;4.88;;;2.30;;
15553;SDS011;7878;44.632;10.942;2023-04-24T00:32:54;7.78;;;1.98;;
15553;SDS011;7878;44.632;10.942;2023-04-24T00:35:20;4.30;;;1.95;;
15553;SDS011;7878;44.632;10.942;2023-04-24T00:37:46;6.55;;;2.38;;
15553;SDS011;7878;44.632;10.942;2023-04-24T00:40:12;6.63;;;2.40;;
15553;SDS011;7878;44.632;10.942;2023-04-24T00:42:38;4.75;;;2.05;;
15553;SDS011;7878;44.632;10.942;2023-04-24T00:45:05;4.10;;;2.20;;
15553;SDS011;7878;44.632;10.942;2023-04-24T00:47:32;5.90;;;2.28;;
15553;SDS011;7878;44.632;10.942;2023-04-24T00:50:00;4.30;;;2.38;;
15553;SDS011;7878;44.632;10.942;2023-04-24T00:52:30;6.47;;;1.92;;
15553;SDS011;7878;44.632;10.942;2023-04-24T00:54:57;6.35;;;2.22;;
15553;SDS011;7878;44.632;10.942;2023-04-24T00:57:23;3.63;;;2.25;;
15553;SDS011;7878;44.632;10.942;2023-04-24T00:59:50;7.05;;;2.42;;
15553;SDS011;7878;44.632;10.942;2023-04-24T01:02:17;7.75;;;2.33;;
15553;SDS011;7878;44.632;10.942;2023-04-24T01:04:43;6.45;;;2.30;;
15553;SDS011;7878;44.632;10.942;2023-04-24T01:07:09;6.95;;;2.67;;
15553;SDS011;7878;44.632;10.942;2023-04-24T01:09:42;6.55;;;2.42;;
15553;SDS011;7878;44.632;10.942;2023-04-24T01:12:12;5.93;;;2.47;;
15553;SDS011;7878;44.632;10.942;2023-04-24T01:14:37;8.40;;;2.58;;
15553;SDS011;7878;44.632;10.942;2023-04-24T01:17:03;7.20;;;2.70;;
15553;SDS011;7878;44.632;10.942;2023-04-24T01:19:29;4.85;;;3.03;;
15553;SDS011;7878;44.632;10.942;2023-04-24T01:21:54;3.55;;;3.22;;
15553;SDS011;7878;44.632;10.942;2023-04-24T01:24:23;6.70;;;3.00;;
15553;SDS011;7878;44.632;10.942;2023-04-24T01:26:49;5.70;;;3.10;;
15553;SDS011;7878;44.632;10.942;2023-04-24T01:29:15;4.97;;;3.30;;
15553;SDS011;7878;44.632;10.942;2023-04-24T01:31:41;7.82;;;3.60;;
15553;SDS011;7878;44.632;10.942;2023-04-24T01:34:06;9.05;;;4.22;;
15553;SDS011;7878;44.632;10.942;2023-04-24T01:36:33;7.18;;;4.45;;
15553;SDS011;7878;44.632;10.942;2023-04-24T01:39:00;6.90;;;3.75;;
15553;SDS011;7878;44.632;10.942;2023-04-24T01:41:26;7.78;;;4.70;;
15553;SDS011;7878;44.632;10.942;2023-04-24T01:43:52;10.27;;;4.57;;
15553;SDS011;7878;44.632;10.942;2023-04-24T01:46:19;10.30;;;4.88;;
15553;SDS011;7878;44.632;10.942;2023-04-24T01:48:45;9.90;;;4.63;;
15553;SDS011;7878;44.632;10.942;2023-04-24T01:51:11;7.93;;;4.35;;
15553;SDS011;7878;44.632;10.942;2023-04-24T01:53:37;7.25;;;5.00;;
15553;SDS011;7878;44.632;10.942;2023-04-24T01:56:03;6.70;;;4.45;;
15553;SDS011;7878;44.632;10.942;2023-04-24T01:58:29;5.63;;;4.28;;
15553;SDS011;7878;44.632;10.942;2023-04-24T02:00:58;4.78;;;3.95;;
15553;SDS011;7878;44.632;10.942;2023-04-24T02:03:25;6.72;;;4.28;;
15553;SDS011;7878;44.632;10.942;2023-04-24T02:05:51;6.13;;;4.95;;
15553;SDS011;7878;44.632;10.942;2023-04-24T02:08:17;12.40;;;5.03;;
15553;SDS011;7878;44.632;10.942;2023-04-24T02:10:42;7.18;;;4.90;;
15553;SDS011;7878;44.632;10.942;2023-04-24T02:13:09;6.78;;;4.82;;
15553;SDS011;7878;44.632;10.942;2023-04-24T02:15:35;7.90;;;5.45;;
15553;SDS011;7878;44.632;10.942;2023-04-24T02:18:01;6.25;;;5.20;;
15553;SDS011;7878;44.632;10.942;2023-04-24T02:20:27;7.53;;;5.50;;
15553;SDS011;7878;44.632;10.942;2023-04-24T02:22:52;8.18;;;5.13;;
15553;SDS011;7878;44.632;10.942;2023-04-24T02:25:18;10.38;;;5.40;;
15553;SDS011;7878;44.632;10.942;2023-04-24T02:27:44;7.30;;;5.32;;
15553;SDS011;7878;44.632;10.942;2023-04-24T02:30:10;9.18;;;5.03;;
15553;SDS011;7878;44.632;10.942;2023-04-24T02:32:35;6.55;;;4.88;;
15553;SDS011;7878;44.632;10.942;2023-04-24T02:35:01;8.43;;;6.18;;
15553;SDS011;7878;44.632;10.942;2023-04-24T02:37:27;7.78;;;5.93;;
15553;SDS011;7878;44.632;10.942;2023-04-24T02:39:52;7.10;;;5.10;;
15553;SDS011;7878;44.632;10.942;2023-04-24T02:42:18;10.32;;;6.13;;
15553;SDS011;7878;44.632;10.942;2023-04-24T02:44:43;12.32;;;5.63;;
15553;SDS011;7878;44.632;10.942;2023-04-24T02:47:09;8.27;;;5.78;;
15553;SDS011;7878;44.632;10.942;2023-04-24T02:49:35;9.02;;;5.18;;
15553;SDS011;7878;44.632;10.942;2023-04-24T02:52:00;8.82;;;5.60;;
15553;SDS011;7878;44.632;10.942;2023-04-24T02:54:26;8.63;;;4.82;;
15553;SDS011;7878;44.632;10.942;2023-04-24T02:56:52;7.05;;;4.47;;
15553;SDS011;7878;44.632;10.942;2023-04-24T02:59:17;11.00;;;5.07;;
15553;SDS011;7878;44.632;10.942;2023-04-24T03:01:43;8.95;;;4.93;;
15553;SDS011;7878;44.632;10.942;2023-04-24T03:04:08;8.63;;;4.70;;
15553;SDS011;7878;44.632;10.942;2023-04-24T03:06:35;6.18;;;3.75;;
15553;SDS011;7878;44.632;10.942;2023-04-24T03:09:01;9.70;;;4.68;;
15553;SDS011;7878;44.632;10.942;2023-04-24T03:11:26;4.78;;;4.20;;
15553;SDS011;7878;44.632;10.942;2023-04-24T03:13:52;8.63;;;4.45;;
15553;SDS011;7878;44.632;10.942;2023-04-24T03:16:18;8.10;;;4.45;;
15553;SDS011;7878;44.632;10.942;2023-04-24T03:18:43;5.60;;;4.30;;
15553;SDS011;7878;44.632;10.942;2023-04-24T03:21:09;7.68;;;4.18;;
15553;SDS011;7878;44.632;10.942;2023-04-24T03:23:35;12.43;;;5.00;;
15553;SDS011;7878;44.632;10.942;2023-04-24T03:26:00;8.90;;;4.53;;
15553;SDS011;7878;44.632;10.942;2023-04-24T03:28:27;6.40;;;4.60;;
15553;SDS011;7878;44.632;10.942;2023-04-24T03:30:52;9.02;;;4.85;;
15553;SDS011;7878;44.632;10.942;2023-04-24T03:33:18;6.20;;;4.75;;
15553;SDS011;7878;44.632;10.942;2023-04-24T03:35:44;8.40;;;5.32;;
15553;SDS011;7878;44.632;10.942;2023-04-24T03:38:10;5.60;;;5.10;;
15553;SDS011;7878;44.632;10.942;2023-04-24T03:40:35;8.60;;;5.25;;
15553;SDS011;7878;44.632;10.942;2023-04-24T03:43:01;7.30;;;5.78;;
15553;SDS011;7878;44.632;10.942;2023-04-24T03:45:27;11.25;;;6.43;;
15553;SDS011;7878;44.632;10.942;2023-04-24T03:47:53;8.00;;;7.20;;
15553;SDS011;7878;44.632;10.942;2023-04-24T03:50:18;9.13;;;7.53;;
15553;SDS011;7878;44.632;10.942;2023-04-24T03:52:45;12.55;;;7.93;;
15553;SDS011;7878;44.632;10.942;2023-04-24T03:55:10;13.25;;;9.07;;
15553;SDS011;7878;44.632;10.942;2023-04-24T03:57:37;16.67;;;10.65;;
15553;SDS011;7878;44.632;10.942;2023-04-24T04:00:04;13.77;;;11.13;;
15553;SDS011;7878;44.632;10.942;2023-04-24T04:02:31;12.70;;;11.20;;
15553;SDS011;7878;44.632;10.942;2023-04-24T04:04:56;14.05;;;11.15;;
15553;SDS011;7878;44.632;10.942;2023-04-24T04:07:22;12.00;;;10.77;;
15553;SDS011;7878;44.632;10.942;2023-04-24T04:09:48;14.73;;;11.48;;
15553;SDS011;7878;44.632;10.942;2023-04-24T04:12:13;14.70;;;11.23;;
15553;SDS011;7878;44.632;10.942;2023-04-24T04:14:39;13.02;;;11.57;;
15553;SDS011;7878;44.632;10.942;2023-04-24T04:17:05;13.13;;;11.30;;
15553;SDS011;7878;44.632;10.942;2023-04-24T04:19:30;17.10;;;11.60;;
15553;SDS011;7878;44.632;10.942;2023-04-24T04:21:56;15.35;;;12.43;;
15553;SDS011;7878;44.632;10.942;2023-04-24T04:24:22;14.85;;;12.00;;
15553;SDS011;7878;44.632;10.942;2023-04-24T04:26:49;14.68;;;12.85;;
15553;SDS011;7878;44.632;10.942;2023-04-24T04:29:16;18.02;;;12.98;;
15553;SDS011;7878;44.632;10.942;2023-04-24T04:31:43;15.00;;;12.40;;
15553;SDS011;7878;44.632;10.942;2023-04-24T04:34:09;16.77;;;13.07;;
15553;SDS011;7878;44.632;10.942;2023-04-24T04:36:36;16.13;;;13.23;;
15553;SDS011;7878;44.632;10.942;2023-04-24T04:39:05;17.70;;;13.75;;
15553;SDS011;7878;44.632;10.942;2023-04-24T04:41:31;17.25;;;14.00;;
15553;SDS011;7878;44.632;10.942;2023-04-24T04:44:00;14.98;;;13.32;;
15553;SDS011;7878;44.632;10.942;2023-04-24T04:46:26;18.25;;;16.35;;
15553;SDS011;7878;44.632;10.942;2023-04-24T04:48:52;14.60;;;13.00;;
15553;SDS011;7878;44.632;10.942;2023-04-24T04:51:19;17.73;;;14.00;;
15553;SDS011;7878;44.632;10.942;2023-04-24T04:53:45;16.15;;;13.18;;
15553;SDS011;7878;44.632;10.942;2023-04-24T04:56:11;14.85;;;13.43;;
15553;SDS011;7878;44.632;10.942;2023-04-24T04:58:36;16.63;;;13.82;;
15553;SDS011;7878;44.632;10.942;2023-04-24T05:01:02;16.95;;;13.80;;
15553;SDS011;7878;44.632;10.942;2023-04-24T05:03:28;16.92;;;14.35;;
15553;SDS011;7878;44.632;10.942;2023-04-24T05:05:54;17.80;;;14.32;;
15553;SDS011;7878;44.632;10.942;2023-04-24T05:08:19;26.63;;;14.45;;
15553;SDS011;7878;44.632;10.942;2023-04-24T05:10:45;17.40;;;15.15;;
15553;SDS011;7878;44.632;10.942;2023-04-24T05:13:10;16.27;;;14.68;;
15553;SDS011;7878;44.632;10.942;2023-04-24T05:15:36;17.38;;;14.00;;
15553;SDS011;7878;44.632;10.942;2023-04-24T05:18:02;18.73;;;15.85;;
15553;SDS011;7878;44.632;10.942;2023-04-24T05:20:28;19.48;;;14.27;;
15553;SDS011;7878;44.632;10.942;2023-04-24T05:22:53;21.40;;;16.45;;
15553;SDS011;7878;44.632;10.942;2023-04-24T05:25:19;17.90;;;15.35;;
15553;SDS011;7878;44.632;10.942;2023-04-24T05:27:45;16.85;;;14.85;;
15553;SDS011;7878;44.632;10.942;2023-04-24T05:30:11;20.55;;;14.90;;
15553;SDS011;7878;44.632;10.942;2023-04-24T05:32:37;18.90;;;14.65;;
15553;SDS011;7878;44.632;10.942;2023-04-24T05:35:03;19.05;;;16.13;;
15553;SDS011;7878;44.632;10.942;2023-04-24T05:37:29;16.40;;;14.05;;
15553;SDS011;7878;44.632;10.942;2023-04-24T05:39:54;16.23;;;14.63;;
15553;SDS011;7878;44.632;10.942;2023-04-24T05:42:20;18.48;;;14.52;;
15553;SDS011;7878;44.632;10.942;2023-04-24T05:44:46;17.23;;;14.13;;
15553;SDS011;7878;44.632;10.942;2023-04-24T05:47:11;18.85;;;13.98;;
15553;SDS011;7878;44.632;10.942;2023-04-24T05:49:37;21.75;;;16.27;;
15553;SDS011;7878;44.632;10.942;2023-04-24T05:52:03;13.90;;;12.43;;
15553;SDS011;7878;44.632;10.942;2023-04-24T05:54:30;14.25;;;12.75;;
15553;SDS011;7878;44.632;10.942;2023-04-24T05:56:56;15.77;;;14.05;;
15553;SDS011;7878;44.632;10.942;2023-04-24T05:59:21;16.55;;;13.48;;
15553;SDS011;7878;44.632;10.942;2023-04-24T06:01:47;16.63;;;13.77;;
15553;SDS011;7878;44.632;10.942;2023-04-24T06:04:13;18.08;;;13.73;;
15553;SDS011;7878;44.632;10.942;2023-04-24T06:06:38;18.13;;;13.32;;
15553;SDS011;7878;44.632;10.942;2023-04-24T06:09:05;18.75;;;13.50;;
15553;SDS011;7878;44.632;10.942;2023-04-24T06:11:30;16.15;;;14.10;;
15553;SDS011;7878;44.632;10.942;2023-04-24T06:13:56;16.20;;;13.43;;
15553;SDS011;7878;44.632;10.942;2023-04-24T06:16:22;15.35;;;13.75;;
15553;SDS011;7878;44.632;10.942;2023-04-24T06:18:48;16.42;;;13.57;;
15553;SDS011;7878;44.632;10.942;2023-04-24T06:21:15;19.92;;;14.50;;
15553;SDS011;7878;44.632;10.942;2023-04-24T06:23:41;17.95;;;14.93;;
15553;SDS011;7878;44.632;10.942;2023-04-24T06:26:06;20.02;;;15.45;;
15553;SDS011;7878;44.632;10.942;2023-04-24T06:28:32;25.83;;;17.10;;
15553;SDS011;7878;44.632;10.942;2023-04-24T06:30:58;28.10;;;16.98;;
15553;SDS011;7878;44.632;10.942;2023-04-24T06:33:23;22.10;;;15.93;;
15553;SDS011;7878;44.632;10.942;2023-04-24T06:35:49;20.58;;;15.57;;
15553;SDS011;7878;44.632;10.942;2023-04-24T06:38:15;17.90;;;16.00;;
15553;SDS011;7878;44.632;10.942;2023-04-24T06:40:41;25.50;;;16.45;;
15553;SDS011;7878;44.632;10.942;2023-04-24T06:43:06;18.33;;;14.93;;
15553;SDS011;7878;44.632;10.942;2023-04-24T06:45:32;16.67;;;14.23;;
15553;SDS011;7878;44.632;10.942;2023-04-24T06:47:57;20.55;;;15.15;;
15553;SDS011;7878;44.632;10.942;2023-04-24T06:50:24;21.33;;;14.95;;
15553;SDS011;7878;44.632;10.942;2023-04-24T06:52:50;20.52;;;13.98;;
15553;SDS011;7878;44.632;10.942;2023-04-24T06:55:15;21.60;;;14.05;;
15553;SDS011;7878;44.632;10.942;2023-04-24T06:57:41;24.35;;;14.63;;
15553;SDS011;7878;44.632;10.942;2023-04-24T07:00:07;17.05;;;14.32;;
15553;SDS011;7878;44.632;10.942;2023-04-24T07:02:34;18.50;;;13.77;;
15553;SDS011;7878;44.632;10.942;2023-04-24T07:05:00;17.92;;;14.38;;
15553;SDS011;7878;44.632;10.942;2023-04-24T07:07:26;13.95;;;12.48;;
15553;SDS011;7878;44.632;10.942;2023-04-24T07:09:52;17.52;;;13.18;;
15553;SDS011;7878;44.632;10.942;2023-04-24T07:12:19;17.88;;;13.50;;
15553;SDS011;7878;44.632;10.942;2023-04-24T07:14:46;18.05;;;13.50;;
15553;SDS011;7878;44.632;10.942;2023-04-24T07:17:12;17.38;;;13.57;;
15553;SDS011;7878;44.632;10.942;2023-04-24T07:19:38;15.73;;;12.75;;
15553;SDS011;7878;44.632;10.942;2023-04-24T07:22:04;16.88;;;11.25;;
15553;SDS011;7878;44.632;10.942;2023-04-24T07:24:30;12.80;;;11.50;;
15553;SDS011;7878;44.632;10.942;2023-04-24T07:26:57;19.67;;;13.35;;
15553;SDS011;7878;44.632;10.942;2023-04-24T07:29:23;12.77;;;11.07;;
15553;SDS011;7878;44.632;10.942;2023-04-24T07:31:49;16.65;;;11.52;;
15553;SDS011;7878;44.632;10.942;2023-04-24T07:34:15;19.17;;;12.55;;
15553;SDS011;7878;44.632;10.942;2023-04-24T07:36:41;17.73;;;11.60;;
15553;SDS011;7878;44.632;10.942;2023-04-24T07:39:07;11.43;;;10.18;;
15553;SDS011;7878;44.632;10.942;2023-04-24T07:41:33;13.60;;;8.48;;
15553;SDS011;7878;44.632;10.942;2023-04-24T07:43:59;10.00;;;8.98;;
15553;SDS011;7878;44.632;10.942;2023-04-24T07:46:24;13.57;;;9.25;;
15553;SDS011;7878;44.632;10.942;2023-04-24T07:48:50;17.20;;;8.98;;
15553;SDS011;7878;44.632;10.942;2023-04-24T07:51:16;8.88;;;7.65;;
15553;SDS011;7878;44.632;10.942;2023-04-24T07:53:42;12.00;;;8.40;;
15553;SDS011;7878;44.632;10.942;2023-04-24T07:56:08;11.30;;;9.13;;
15553;SDS011;7878;44.632;10.942;2023-04-24T07:58:34;11.77;;;9.48;;
15553;SDS011;7878;44.632;10.942;2023-04-24T08:01:00;15.02;;;8.77;;
15553;SDS011;7878;44.632;10.942;2023-04-24T08:03:26;14.75;;;7.53;;
15553;SDS011;7878;44.632;10.942;2023-04-24T08:05:51;8.88;;;7.18;;
15553;SDS011;7878;44.632;10.942;2023-04-24T08:08:17;9.43;;;6.45;;
15553;SDS011;7878;44.632;10.942;2023-04-24T08:10:44;13.05;;;7.45;;
15553;SDS011;7878;44.632;10.942;2023-04-24T08:13:10;8.55;;;6.50;;
15553;SDS011;7878;44.632;10.942;2023-04-24T08:15:36;7.93;;;6.45;;
15553;SDS011;7878;44.632;10.942;2023-04-24T08:18:02;9.05;;;7.13;;
15553;SDS011;7878;44.632;10.942;2023-04-24T08:20:28;10.02;;;6.63;;
15553;SDS011;7878;44.632;10.942;2023-04-24T08:22:53;8.65;;;6.47;;
15553;SDS011;7878;44.632;10.942;2023-04-24T08:25:20;28.75;;;6.97;;
15553;SDS011;7878;44.632;10.942;2023-04-24T08:27:48;11.38;;;6.68;;
15553;SDS011;7878;44.632;10.942;2023-04-24T08:30:13;8.20;;;4.97;;
15553;SDS011;7878;44.632;10.942;2023-04-24T08:32:39;11.23;;;4.93;;
15553;SDS011;7878;44.632;10.942;2023-04-24T08:35:05;6.43;;;4.50;;
15553;SDS011;7878;44.632;10.942;2023-04-24T08:37:33;8.73;;;4.35;;
15553;SDS011;7878;44.632;10.942;2023-04-24T08:39:59;5.53;;;3.80;;
15553;SDS011;7878;44.632;10.942;2023-04-24T08:42:25;5.38;;;4.03;;
15553;SDS011;7878;44.632;10.942;2023-04-24T08:44:53;6.43;;;3.63;;
15553;SDS011;7878;44.632;10.942;2023-04-24T08:47:20;6.38;;;3.97;;
15553;SDS011;7878;44.632;10.942;2023-04-24T08:49:46;7.05;;;4.00;;
15553;SDS011;7878;44.632;10.942;2023-04-24T08:52:13;6.70;;;4.10;;
15553;SDS011;7878;44.632;10.942;2023-04-24T08:54:41;6.75;;;3.42;;
15553;SDS011;7878;44.632;10.942;2023-04-24T08:57:10;4.88;;;3.95;;
15553;SDS011;7878;44.632;10.942;2023-04-24T08:59:37;4.63;;;3.55;;
15553;SDS011;7878;44.632;10.942;2023-04-24T09:02:03;13.32;;;3.88;;
15553;SDS011;7878;44.632;10.942;2023-04-24T09:04:29;8.40;;;3.97;;
15553;SDS011;7878;44.632;10.942;2023-04-24T09:06:57;7.13;;;4.57;;
15553;SDS011;7878;44.632;10.942;2023-04-24T09:09:24;5.45;;;4.95;;
15553;SDS011;7878;44.632;10.942;2023-04-24T09:11:51;6.75;;;5.32;;
15553;SDS011;7878;44.632;10.942;2023-04-24T09:14:19;6.20;;;4.40;;
15553;SDS011;7878;44.632;10.942;2023-04-24T09:16:46;11.10;;;5.43;;
15553;SDS011;7878;44.632;10.942;2023-04-24T09:19:12;7.53;;;4.25;;
15553;SDS011;7878;44.632;10.942;2023-04-24T09:21:37;16.63;;;8.55;;
15553;SDS011;7878;44.632;10.942;2023-04-24T09:24:05;9.25;;;5.00;;
15553;SDS011;7878;44.632;10.942;2023-04-24T09:26:34;6.30;;;5.13;;
15553;SDS011;7878;44.632;10.942;2023-04-24T09:29:01;6.97;;;4.32;;
15553;SDS011;7878;44.632;10.942;2023-04-24T09:31:29;9.10;;;4.80;;
15553;SDS011;7878;44.632;10.942;2023-04-24T09:34:01;9.73;;;4.30;;
15553;SDS011;7878;44.632;10.942;2023-04-24T09:36:40;8.82;;;4.65;;
15553;SDS011;7878;44.632;10.942;2023-04-24T09:39:11;7.50;;;5.00;;
15553;SDS011;7878;44.632;10.942;2023-04-24T09:44:18;7.72;;;5.47;;
15553;SDS011;7878;44.632;10.942;2023-04-24T09:46:49;9.82;;;5.30;;
15553;SDS011;7878;44.632;10.942;2023-04-24T09:49:16;11.00;;;5.53;;
15553;SDS011;7878;44.632;10.942;2023-04-24T09:51:49;5.05;;;4.50;;
15553;SDS011;7878;44.632;10.942;2023-04-24T09:54:17;10.77;;;5.43;;
15553;SDS011;7878;44.632;10.942;2023-04-24T09:56:45;7.68;;;6.10;;
15553;SDS011;7878;44.632;10.942;2023-04-24T09:59:13;7.32;;;5.78;;
15553;SDS011;7878;44.632;10.942;2023-04-24T10:01:40;9.45;;;5.72;;
15553;SDS011;7878;44.632;10.942;2023-04-24T10:04:23;8.07;;;5.05;;
15553;SDS011;7878;44.632;10.942;2023-04-24T10:06:51;7.28;;;5.25;;
15553;SDS011;7878;44.632;10.942;2023-04-24T10:09:18;8.95;;;5.32;;
15553;SDS011;7878;44.632;10.942;2023-04-24T10:11:47;5.68;;;4.38;;
15553;SDS011;7878;44.632;10.942;2023-04-24T10:14:14;8.65;;;4.60;;
15553;SDS011;7878;44.632;10.942;2023-04-24T10:16:42;8.00;;;4.80;;
15553;SDS011;7878;44.632;10.942;2023-04-24T10:19:08;7.10;;;5.18;;
15553;SDS011;7878;44.632;10.942;2023-04-24T10:21:34;10.55;;;5.03;;
15553;SDS011;7878;44.632;10.942;2023-04-24T10:24:04;9.43;;;4.00;;
15553;SDS011;7878;44.632;10.942;2023-04-24T10:26:32;7.68;;;4.25;;
15553;SDS011;7878;44.632;10.942;2023-04-24T10:28:58;7.72;;;4.60;;
15553;SDS011;7878;44.632;10.942;2023-04-24T10:31:23;6.88;;;4.65;;
15553;SDS011;7878;44.632;10.942;2023-04-24T10:33:50;7.05;;;4.07;;
15553;SDS011;7878;44.632;10.942;2023-04-24T10:36:18;6.97;;;4.43;;
15553;SDS011;7878;44.632;10.942;2023-04-24T10:38:46;10.85;;;4.30;;
15553;SDS011;7878;44.632;10.942;2023-04-24T10:41:14;4.70;;;4.00;;
15553;SDS011;7878;44.632;10.942;2023-04-24T10:43:45;6.60;;;3.70;;
15553;SDS011;7878;44.632;10.942;2023-04-24T10:46:11;4.82;;;3.53;;
15553;SDS011;7878;44.632;10.942;2023-04-24T10:48:44;4.72;;;3.75;;
15553;SDS011;7878;44.632;10.942;2023-04-24T10:51:18;7.75;;;4.10;;
15553;SDS011;7878;44.632;10.942;2023-04-24T10:54:29;5.30;;;3.70;;
15553;SDS011;7878;44.632;10.942;2023-04-24T10:57:24;5.38;;;3.70;;
15553;SDS011;7878;44.632;10.942;2023-04-24T11:00:30;4.55;;;3.40;;
15553;SDS011;7878;44.632;10.942;2023-04-24T11:02:46;10.25;;;3.78;;
15553;SDS011;7878;44.632;10.942;2023-04-24T11:05:18;4.85;;;3.35;;
15553;SDS011;7878;44.632;10.942;2023-04-24T11:11:02;8.93;;;4.15;;
15553;SDS011;7878;44.632;10.942;2023-04-24T11:13:26;8.02;;;3.90;;
15553;SDS011;7878;44.632;10.942;2023-04-24T11:16:29;6.65;;;4.13;;
15553;SDS011;7878;44.632;10.942;2023-04-24T11:24:28;4.95;;;3.92;;
15553;SDS011;7878;44.632;10.942;2023-04-24T11:29:23;5.85;;;3.33;;
15553;SDS011;7878;44.632;10.942;2023-04-24T11:34:52;9.85;;;3.78;;
15553;SDS011;7878;44.632;10.942;2023-04-24T11:37:39;7.88;;;3.80;;
15553;SDS011;7878;44.632;10.942;2023-04-24T11:40:09;6.00;;;4.20;;
15553;SDS011;7878;44.632;10.942;2023-04-24T11:42:37;5.25;;;3.83;;
15553;SDS011;7878;44.632;10.942;2023-04-24T11:45:08;6.47;;;3.58;;
15553;SDS011;7878;44.632;10.942;2023-04-24T11:47:35;5.38;;;3.80;;
15553;SDS011;7878;44.632;10.942;2023-04-24T11:50:01;7.07;;;3.65;;
15553;SDS011;7878;44.632;10.942;2023-04-24T11:52:29;5.80;;;3.70;;
15553;SDS011;7878;44.632;10.942;2023-04-24T11:54:55;5.78;;;3.83;;
15553;SDS011;7878;44.632;10.942;2023-04-24T11:57:21;7.10;;;4.32;;
15553;SDS011;7878;44.632;10.942;2023-04-24T11:59:49;5.03;;;3.63;;
15553;SDS011;7878;44.632;10.942;2023-04-24T12:02:25;4.82;;;2.92;;
15553;SDS011;7878;44.632;10.942;2023-04-24T12:04:52;5.43;;;3.45;;
15553;SDS011;7878;44.632;10.942;2023-04-24T12:07:18;4.75;;;4.25;;
15553;SDS011;7878;44.632;10.942;2023-04-24T12:09:45;4.10;;;3.60;;
15553;SDS011;7878;44.632;10.942;2023-04-24T12:12:20;4.85;;;3.40;;
15553;SDS011;7878;44.632;10.942;2023-04-24T12:14:49;5.35;;;3.38;;
15553;SDS011;7878;44.632;10.942;2023-04-24T12:17:17;4.75;;;3.22;;
15553;SDS011;7878;44.632;10.942;2023-04-24T12:19:50;4.63;;;2.95;;
15553;SDS011;7878;44.632;10.942;2023-04-24T12:22:16;4.57;;;2.70;;
15553;SDS011;7878;44.632;10.942;2023-04-24T12:27:22;3.50;;;3.10;;
15553;SDS011;7878;44.632;10.942;2023-04-24T12:29:53;4.70;;;3.50;;
15553;SDS011;7878;44.632;10.942;2023-04-24T12:32:21;3.67;;;3.30;;
15553;SDS011;7878;44.632;10.942;2023-04-24T12:34:49;3.25;;;2.95;;
15553;SDS011;7878;44.632;10.942;2023-04-24T12:37:16;3.03;;;2.72;;
15553;SDS011;7878;44.632;10.942;2023-04-24T12:40:01;3.28;;;2.85;;
15553;SDS011;7878;44.632;10.942;2023-04-24T12:42:36;4.00;;;2.67;;
15553;SDS011;7878;44.632;10.942;2023-04-24T12:45:08;8.02;;;3.28;;
15553;SDS011;7878;44.632;10.942;2023-04-24T12:47:33;4.22;;;2.92;;
15553;SDS011;7878;44.632;10.942;2023-04-24T12:50:00;3.33;;;2.50;;
15553;SDS011;7878;44.632;10.942;2023-04-24T12:52:27;8.38;;;2.80;;
15553;SDS011;7878;44.632;10.942;2023-04-24T12:54:58;2.60;;;2.30;;
15553;SDS011;7878;44.632;10.942;2023-04-24T12:57:25;7.07;;;2.30;;
15553;SDS011;7878;44.632;10.942;2023-04-24T12:59:55;4.28;;;2.10;;
15553;SDS011;7878;44.632;10.942;2023-04-24T13:02:24;2.30;;;2.10;;
15553;SDS011;7878;44.632;10.942;2023-04-24T13:04:51;3.83;;;2.55;;
15553;SDS011;7878;44.632;10.942;2023-04-24T13:07:17;3.72;;;2.22;;
15553;SDS011;7878;44.632;10.942;2023-04-24T13:09:44;2.78;;;2.20;;
15553;SDS011;7878;44.632;10.942;2023-04-24T13:12:10;2.67;;;1.98;;
15553;SDS011;7878;44.632;10.942;2023-04-24T13:14:36;2.88;;;1.83;;
15553;SDS011;7878;44.632;10.942;2023-04-24T13:17:03;2.75;;;1.90;;
15553;SDS011;7878;44.632;10.942;2023-04-24T13:19:29;2.60;;;1.80;;
15553;SDS011;7878;44.632;10.942;2023-04-24T13:22:00;2.65;;;2.10;;
15553;SDS011;7878;44.632;10.942;2023-04-24T13:24:26;3.33;;;2.08;;
15553;SDS011;7878;44.632;10.942;2023-04-24T13:26:52;2.78;;;1.92;;
15553;SDS011;7878;44.632;10.942;2023-04-24T13:29:18;2.67;;;2.00;;
15553;SDS011;7878;44.632;10.942;2023-04-24T13:31:43;6.03;;;1.98;;
15553;SDS011;7878;44.632;10.942;2023-04-24T13:34:09;3.45;;;2.05;;
15553;SDS011;7878;44.632;10.942;2023-04-24T13:36:35;2.17;;;1.80;;
15553;SDS011;7878;44.632;10.942;2023-04-24T13:39:01;5.00;;;2.20;;
15553;SDS011;7878;44.632;10.942;2023-04-24T13:41:29;2.53;;;2.03;;
15553;SDS011;7878;44.632;10.942;2023-04-24T13:43:55;2.97;;;2.50;;
15553;SDS011;7878;44.632;10.942;2023-04-24T13:46:21;3.50;;;2.42;;
15553;SDS011;7878;44.632;10.942;2023-04-24T13:48:47;4.03;;;2.40;;
15553;SDS011;7878;44.632;10.942;2023-04-24T13:51:12;6.20;;;2.70;;
15553;SDS011;7878;44.632;10.942;2023-04-24T13:53:38;3.08;;;2.78;;
15553;SDS011;7878;44.632;10.942;2023-04-24T13:56:04;3.83;;;2.42;;
15553;SDS011;7878;44.632;10.942;2023-04-24T13:58:34;5.32;;;2.83;;
15553;SDS011;7878;44.632;10.942;2023-04-24T14:01:01;3.47;;;3.17;;
15553;SDS011;7878;44.632;10.942;2023-04-24T14:03:28;5.30;;;2.70;;
15553;SDS011;7878;44.632;10.942;2023-04-24T14:05:54;2.60;;;2.40;;
15553;SDS011;7878;44.632;10.942;2023-04-24T14:08:19;4.65;;;2.72;;
15553;SDS011;7878;44.632;10.942;2023-04-24T14:10:45;2.90;;;2.60;;
15553;SDS011;7878;44.632;10.942;2023-04-24T14:13:11;7.50;;;3.95;;
15553;SDS011;7878;44.632;10.942;2023-04-24T14:15:37;9.68;;;3.30;;
15553;SDS011;7878;44.632;10.942;2023-04-24T14:18:03;3.10;;;2.80;;
15553;SDS011;7878;44.632;10.942;2023-04-24T14:20:28;4.70;;;3.45;;
15553;SDS011;7878;44.632;10.942;2023-04-24T14:22:54;4.38;;;2.90;;
15553;SDS011;7878;44.632;10.942;2023-04-24T14:25:20;6.57;;;3.40;;
15553;SDS011;7878;44.632;10.942;2023-04-24T14:27:47;5.40;;;2.95;;
15553;SDS011;7878;44.632;10.942;2023-04-24T14:30:13;3.67;;;3.38;;
15553;SDS011;7878;44.632;10.942;2023-04-24T14:32:40;4.80;;;3.65;;
15553;SDS011;7878;44.632;10.942;2023-04-24T14:35:06;7.03;;;3.80;;
15553;SDS011;7878;44.632;10.942;2023-04-24T14:37:32;3.38;;;2.75;;
15553;SDS011;7878;44.632;10.942;2023-04-24T14:39:58;2.65;;;2.45;;
15553;SDS011;7878;44.632;10.942;2023-04-24T14:42:23;4.43;;;3.08;;
15553;SDS011;7878;44.632;10.942;2023-04-24T14:44:49;5.38;;;3.55;;
15553;SDS011;7878;44.632;10.942;2023-04-24T14:47:15;3.88;;;3.38;;
15553;SDS011;7878;44.632;10.942;2023-04-24T14:49:42;5.28;;;4.07;;
15553;SDS011;7878;44.632;10.942;2023-04-24T14:52:09;5.93;;;3.90;;
15553;SDS011;7878;44.632;10.942;2023-04-24T14:54:35;4.90;;;3.78;;
15553;SDS011;7878;44.632;10.942;2023-04-24T14:57:01;4.38;;;3.20;;
15553;SDS011;7878;44.632;10.942;2023-04-24T14:59:29;3.72;;;2.83;;